Time;durP1;ratioP1;P1;durP2;ratioP2;P2;SDS_P1;SDS_P2;PMS_P1;PMS_P2;Temp;Humidity;BMP_temperature;BMP_pressure;BME280_temperature;BME280_humidity;BME280_pressure;Samples;Min_cycle;Max_cycle;Signal;HPM_P1;HPM_P2
2021/12/10 00:00:34;;;;;;;2.70;1.05;;;1.90;99.70;;;;;;4983174;28;20069;-85
2021/12/10 00:03:03;;;;;;;2.47;1.17;;;1.90;99.60;;;;;;4980374;28;20035;-86
2021/12/10 00:05:47;;;;;;;4.95;1.20;;;1.90;99.50;;;;;;4985291;28;20450;-84
2021/12/10 00:08:14;;;;;;;3.92;0.88;;;1.90;99.30;;;;;;5003220;28;20034;-84
2021/12/10 00:10:48;;;;;;;3.25;1.20;;;1.90;99.20;;;;;;4984276;28;20019;-84
2021/12/10 00:13:14;;;;;;;3.00;1.35;;;1.90;99.10;;;;;;4999015;28;20054;-85
2021/12/10 00:15:42;;;;;;;1.45;0.77;;;1.90;99.00;;;;;;4998413;28;20037;-83
2021/12/10 00:18:10;;;;;;;5.38;0.90;;;1.80;98.90;;;;;;4983124;28;20126;-85
2021/12/10 00:20:38;;;;;;;6.47;1.58;;;1.90;98.90;;;;;;5001336;28;20030;-85
2021/12/10 00:23:12;;;;;;;6.65;1.42;;;1.80;98.80;;;;;;4984352;28;20072;-85
2021/12/10 00:25:44;;;;;;;3.70;0.90;;;1.80;98.90;;;;;;4984715;28;20034;-82
2021/12/10 00:28:18;;;;;;;;;;;1.80;98.90;;;;;;4985207;28;20026;-84
2021/12/10 00:34:00;;;;;;;3.10;1.05;;;1.80;98.80;;;;;;5000455;28;20308;-85
2021/12/10 00:36:26;;;;;;;2.90;0.95;;;1.90;98.40;;;;;;5000941;28;20086;-83
2021/12/10 00:38:53;;;;;;;1.27;0.70;;;1.90;98.40;;;;;;4994333;28;20046;-80
2021/12/10 00:41:21;;;;;;;2.72;1.08;;;1.90;98.50;;;;;;4999408;28;20021;-78
2021/12/10 00:43:47;;;;;;;3.05;0.77;;;1.90;98.50;;;;;;5016196;28;20018;-78
2021/12/10 00:46:14;;;;;;;1.08;0.60;;;1.90;98.30;;;;;;5015839;28;20029;-82
2021/12/10 00:48:39;;;;;;;5.65;1.70;;;2.00;98.30;;;;;;4998574;28;20050;-79
2021/12/10 00:51:08;;;;;;;4.07;1.20;;;2.00;98.20;;;;;;5015568;28;20046;-83
2021/12/10 00:53:34;;;;;;;3.03;0.90;;;2.00;97.90;;;;;;5014756;28;20018;-78
2021/12/10 00:56:01;;;;;;;3.33;1.13;;;1.90;97.90;;;;;;4989694;28;20026;-85
2021/12/10 00:58:28;;;;;;;2.35;0.88;;;1.90;97.90;;;;;;5002222;28;20054;-83
2021/12/10 01:00:58;;;;;;;2.17;0.90;;;1.90;97.90;;;;;;4986872;28;20029;-82
2021/12/10 01:03:32;;;;;;;1.95;0.68;;;1.90;98.00;;;;;;4986120;28;20053;-84
2021/12/10 01:06:02;;;;;;;2.00;0.82;;;1.90;98.10;;;;;;4983637;28;20193;-81
2021/12/10 01:08:30;;;;;;;2.28;1.10;;;1.80;98.10;;;;;;4980508;28;20066;-79
2021/12/10 01:11:11;;;;;;;2.22;1.45;;;1.90;98.10;;;;;;4980028;28;20026;-80
2021/12/10 01:13:40;;;;;;;2.42;0.80;;;1.80;98.00;;;;;;4999310;28;20030;-79
2021/12/10 01:23:41;;;;;;;2.05;0.90;;;1.80;98.00;;;;;;4997777;28;20022;-80
2021/12/10 01:27:33;;;;;;;3.85;0.90;;;1.70;97.80;;;;;;5004243;28;20044;-81
2021/12/10 01:30:20;;;;;;;2.25;0.80;;;1.70;97.90;;;;;;5006988;28;20034;-80
2021/12/10 01:32:50;;;;;;;3.17;0.90;;;1.70;98.10;;;;;;5003023;28;20026;-80
2021/12/10 01:35:21;;;;;;;1.40;0.60;;;1.60;98.10;;;;;;5002905;28;20018;-80
2021/12/10 01:37:53;;;;;;;3.13;0.80;;;1.60;98.20;;;;;;5005249;28;20075;-81
2021/12/10 01:40:21;;;;;;;3.50;1.00;;;1.60;98.40;;;;;;5007535;28;20026;-80
2021/12/10 01:42:51;;;;;;;1.90;0.65;;;1.50;98.30;;;;;;4997978;28;20029;-79
2021/12/10 01:45:27;;;;;;;2.15;1.05;;;1.40;98.50;;;;;;5018247;28;20006;-80
2021/12/10 01:48:01;;;;;;;0.85;0.43;;;1.30;98.90;;;;;;5012654;28;20026;-81
2021/12/10 01:50:28;;;;;;;1.85;0.82;;;1.30;99.10;;;;;;5004803;28;20030;-81
2021/12/10 01:52:56;;;;;;;2.08;0.80;;;1.20;99.50;;;;;;4992564;28;20011;-80
2021/12/10 01:55:24;;;;;;;2.28;0.82;;;1.20;99.80;;;;;;5000371;28;20367;-79
2021/12/10 01:57:51;;;;;;;4.43;0.70;;;1.10;99.90;;;;;;4989030;28;20092;-80
2021/12/10 02:00:20;;;;;;;2.85;1.00;;;1.00;99.90;;;;;;4992681;28;20072;-81
2021/12/10 02:02:46;;;;;;;2.33;0.70;;;0.90;99.90;;;;;;5011059;28;20053;-81
2021/12/10 02:05:13;;;;;;;2.90;1.15;;;0.90;99.90;;;;;;4989911;28;20125;-81
2021/12/10 02:07:39;;;;;;;3.72;0.80;;;0.80;99.90;;;;;;5006635;28;20439;-81
2021/12/10 02:10:08;;;;;;;1.92;0.80;;;0.70;99.90;;;;;;5006138;28;20030;-81
2021/12/10 02:12:34;;;;;;;2.33;1.13;;;0.70;99.90;;;;;;5006621;28;20113;-81
2021/12/10 02:15:02;;;;;;;1.50;0.85;;;0.60;99.90;;;;;;5003483;28;20030;-82
2021/12/10 02:17:35;;;;;;;2.92;0.93;;;0.50;99.90;;;;;;5005230;28;20042;-82
2021/12/10 02:20:26;;;;;;;0.90;0.80;;;0.50;99.90;;;;;;4987382;28;20073;-81
2021/12/10 02:22:52;;;;;;;1.63;1.00;;;0.40;99.90;;;;;;4987546;28;20121;-81
2021/12/10 02:25:22;;;;;;;2.17;0.68;;;0.40;99.90;;;;;;5005838;28;20084;-82
2021/12/10 02:27:49;;;;;;;1.60;0.50;;;0.30;99.90;;;;;;5005929;28;20023;-83
2021/12/10 02:30:17;;;;;;;2.40;0.90;;;0.20;99.90;;;;;;4988998;28;20026;-82
2021/12/10 02:32:43;;;;;;;1.20;0.70;;;0.20;99.90;;;;;;4990050;28;20041;-81
2021/12/10 02:35:11;;;;;;;3.22;0.93;;;0.20;99.90;;;;;;4986492;28;20125;-82
2021/12/10 02:37:38;;;;;;;1.40;0.82;;;0.20;99.90;;;;;;5006224;28;20037;-81
2021/12/10 02:40:06;;;;;;;4.82;1.48;;;0.10;99.90;;;;;;5004035;28;20082;-82
2021/12/10 02:42:32;;;;;;;3.65;0.82;;;0.10;99.90;;;;;;5004126;28;20023;-82
2021/12/10 02:44:59;;;;;;;1.33;0.65;;;0.10;99.90;;;;;;5004427;28;20033;-82
2021/12/10 02:47:25;;;;;;;2.30;0.80;;;0.00;99.90;;;;;;5002774;28;20026;-83
2021/12/10 02:49:50;;;;;;;1.65;0.90;;;0.00;99.90;;;;;;5003721;28;20032;-82
2021/12/10 02:52:17;;;;;;;0.73;0.57;;;-0.10;99.90;;;;;;5004053;28;20166;-82
2021/12/10 02:54:44;;;;;;;1.13;0.63;;;-0.10;99.90;;;;;;5005141;28;20101;-82
2021/12/10 02:57:16;;;;;;;2.35;1.05;;;-0.10;99.90;;;;;;5006943;28;20022;-81
2021/12/10 02:59:42;;;;;;;1.33;0.60;;;-0.20;99.90;;;;;;5006688;28;20240;-80
2021/12/10 03:02:13;;;;;;;1.17;0.73;;;-0.20;99.90;;;;;;4995434;28;20118;-80
2021/12/10 03:04:40;;;;;;;3.35;1.00;;;-0.20;99.90;;;;;;5012282;28;20026;-80
2021/12/10 03:07:13;;;;;;;1.50;0.70;;;-0.20;99.90;;;;;;5006491;28;20519;-80
2021/12/10 03:09:41;;;;;;;1.05;0.50;;;-0.30;99.90;;;;;;5004241;28;20050;-81
2021/12/10 03:12:08;;;;;;;0.73;0.50;;;-0.30;99.90;;;;;;4999338;28;20104;-81
2021/12/10 03:14:36;;;;;;;2.45;0.50;;;-0.30;99.90;;;;;;5003142;28;20066;-81
2021/12/10 03:17:07;;;;;;;3.53;0.65;;;-0.30;99.90;;;;;;5003339;28;20028;-80
2021/12/10 03:19:33;;;;;;;0.95;0.65;;;-0.30;99.90;;;;;;5003780;28;20046;-82
2021/12/10 03:22:00;;;;;;;0.80;0.60;;;-0.40;99.90;;;;;;4986229;28;20127;-81
2021/12/10 03:24:27;;;;;;;1.35;0.55;;;-0.40;99.90;;;;;;4987280;28;20060;-81
2021/12/10 03:26:57;;;;;;;0.77;0.43;;;-0.40;99.90;;;;;;5005198;28;20383;-81
2021/12/10 03:29:25;;;;;;;0.90;0.60;;;-0.40;99.90;;;;;;4986363;28;20031;-82
2021/12/10 03:31:52;;;;;;;1.40;0.50;;;-0.50;99.90;;;;;;5003269;28;20073;-81
2021/12/10 03:34:18;;;;;;;0.70;0.63;;;-0.50;99.90;;;;;;4985928;28;20031;-81
2021/12/10 03:36:46;;;;;;;1.55;0.57;;;-0.60;99.90;;;;;;5003226;28;20023;-80
2021/12/10 03:39:20;;;;;;;0.70;0.30;;;-0.50;99.90;;;;;;4985175;28;20393;-81
2021/12/10 03:41:46;;;;;;;0.73;0.43;;;-0.50;99.90;;;;;;5001731;28;20084;-80
2021/12/10 03:44:12;;;;;;;0.32;0.30;;;-0.60;99.90;;;;;;4984204;28;20042;-81
2021/12/10 03:46:39;;;;;;;1.65;0.60;;;-0.60;99.90;;;;;;5002130;28;20033;-81
2021/12/10 03:49:06;;;;;;;0.93;0.30;;;-0.60;99.90;;;;;;4985178;28;20076;-82
2021/12/10 03:51:34;;;;;;;0.47;0.30;;;-0.60;99.90;;;;;;5004872;28;20029;-79
2021/12/10 03:54:00;;;;;;;0.38;0.20;;;-0.60;99.90;;;;;;5004783;28;20095;-82
2021/12/10 03:56:29;;;;;;;1.10;0.50;;;-0.60;99.90;;;;;;5007487;28;20102;-81
2021/12/10 03:58:58;;;;;;;0.95;0.32;;;-0.70;99.90;;;;;;5000821;28;20053;-81
2021/12/10 04:01:28;;;;;;;0.55;0.28;;;-0.70;99.90;;;;;;4985375;28;20110;-80
2021/12/10 04:03:55;;;;;;;2.25;0.63;;;-0.70;99.90;;;;;;5001776;28;20030;-81
2021/12/10 04:06:22;;;;;;;0.47;0.40;;;-0.80;99.90;;;;;;5002706;28;20048;-81
2021/12/10 04:08:49;;;;;;;0.30;0.30;;;-0.80;99.90;;;;;;5001917;28;20030;-80
2021/12/10 04:11:16;;;;;;;0.20;0.20;;;-0.80;99.90;;;;;;5001712;28;20031;-80
2021/12/10 04:13:45;;;;;;;0.47;0.40;;;-0.80;99.90;;;;;;5001665;28;20030;-81
2021/12/10 04:16:11;;;;;;;1.08;0.35;;;-0.90;99.90;;;;;;4984185;28;20014;-81
2021/12/10 04:18:37;;;;;;;1.52;0.40;;;-0.90;99.90;;;;;;5000587;28;20088;-80
2021/12/10 04:21:08;;;;;;;0.50;0.30;;;-0.90;99.90;;;;;;4987799;28;20106;-79
2021/12/10 04:23:36;;;;;;;0.35;0.28;;;-0.90;99.90;;;;;;4987170;28;20033;-80
2021/12/10 04:26:03;;;;;;;1.70;0.40;;;-0.90;99.90;;;;;;4986316;28;20058;-82
2021/12/10 04:28:29;;;;;;;0.57;0.43;;;-0.90;99.90;;;;;;4988963;28;20030;-82
2021/12/10 04:30:55;;;;;;;0.45;0.32;;;-0.90;99.90;;;;;;5013133;28;20081;-81
2021/12/10 04:33:25;;;;;;;0.63;0.40;;;-0.90;99.90;;;;;;5005277;28;20022;-81
2021/12/10 04:35:54;;;;;;;1.85;0.30;;;-1.00;99.90;;;;;;4982912;28;20035;-80
2021/12/10 04:38:21;;;;;;;0.95;0.55;;;-1.00;99.90;;;;;;5000396;28;20022;-80
2021/12/10 04:40:50;;;;;;;1.60;0.43;;;-1.00;99.90;;;;;;4998622;28;20090;-80
2021/12/10 04:43:18;;;;;;;3.83;0.32;;;-1.10;99.90;;;;;;5001576;28;20033;-80
2021/12/10 04:45:44;;;;;;;1.33;0.50;;;-1.00;99.90;;;;;;5004801;28;20045;-79
2021/12/10 04:48:10;;;;;;;2.33;0.40;;;-1.00;99.90;;;;;;4982300;28;20033;-79
2021/12/10 04:50:36;;;;;;;1.38;0.40;;;-1.00;99.90;;;;;;5007890;28;20057;-81
2021/12/10 04:53:06;;;;;;;1.02;0.47;;;-1.10;99.90;;;;;;5015276;28;20027;-80
2021/12/10 04:55:32;;;;;;;0.63;0.43;;;-1.10;99.90;;;;;;5015309;28;20029;-80
2021/12/10 04:57:58;;;;;;;0.98;0.30;;;-1.10;99.90;;;;;;5004205;28;20019;-82
2021/12/10 05:00:30;;;;;;;4.13;0.45;;;-1.10;99.90;;;;;;4985630;28;20033;-79
2021/12/10 05:03:00;;;;;;;0.50;0.50;;;-1.00;99.90;;;;;;5002225;28;20432;-80
2021/12/10 05:05:27;;;;;;;1.65;0.45;;;-1.00;99.90;;;;;;5002571;28;20034;-80
2021/12/10 05:07:54;;;;;;;0.30;0.30;;;-1.00;99.90;;;;;;5004958;28;20026;-79
2021/12/10 05:10:21;;;;;;;2.13;0.30;;;-1.10;99.90;;;;;;4988254;28;20031;-80
2021/12/10 05:12:47;;;;;;;1.00;0.30;;;-1.00;99.90;;;;;;4988891;28;20094;-80
2021/12/10 05:15:20;;;;;;;0.85;0.40;;;-1.10;99.90;;;;;;4992885;28;20042;-80
2021/12/10 05:17:49;;;;;;;0.35;0.30;;;-1.10;99.90;;;;;;5014655;28;20121;-81
2021/12/10 05:20:20;;;;;;;0.38;0.32;;;-1.10;99.90;;;;;;4998508;28;20025;-81
2021/12/10 05:22:47;;;;;;;3.53;0.75;;;-1.10;99.90;;;;;;5010968;28;20058;-81
2021/12/10 05:25:14;;;;;;;1.85;0.50;;;-1.10;99.90;;;;;;5012657;28;20022;-79
2021/12/10 05:27:43;;;;;;;3.05;0.60;;;-1.10;99.90;;;;;;5016036;28;20027;-82
2021/12/10 05:30:13;;;;;;;0.70;0.32;;;-1.10;99.90;;;;;;5015268;28;20026;-81
2021/12/10 05:32:39;;;;;;;0.43;0.40;;;-1.10;99.90;;;;;;5010215;28;20188;-81
2021/12/10 05:35:06;;;;;;;0.75;0.40;;;-1.10;99.90;;;;;;5009051;28;20026;-81
2021/12/10 05:37:33;;;;;;;0.68;0.43;;;-1.10;99.90;;;;;;4988978;28;20506;-80
2021/12/10 05:39:58;;;;;;;1.35;0.60;;;-1.10;99.90;;;;;;5009170;28;20035;-79
2021/12/10 05:42:24;;;;;;;0.95;0.55;;;-1.10;99.90;;;;;;5018720;28;20018;-81
2021/12/10 05:44:51;;;;;;;1.52;0.70;;;-1.10;99.90;;;;;;5009185;28;20094;-80
2021/12/10 05:47:18;;;;;;;2.67;0.65;;;-1.10;99.90;;;;;;5009882;28;20030;-81
2021/12/10 05:49:44;;;;;;;3.95;0.95;;;-1.20;99.90;;;;;;5011115;28;20038;-80
2021/12/10 05:52:11;;;;;;;2.38;0.73;;;-1.10;99.90;;;;;;5006606;28;20033;-81
2021/12/10 05:54:37;;;;;;;3.60;1.08;;;-1.20;99.90;;;;;;5004761;28;20030;-81
2021/12/10 05:57:04;;;;;;;3.53;0.90;;;-1.20;99.90;;;;;;4987648;28;20026;-81
2021/12/10 05:59:30;;;;;;;1.65;1.00;;;-1.20;99.90;;;;;;5005782;28;20352;-80
2021/12/10 06:01:56;;;;;;;2.28;1.23;;;-1.30;99.90;;;;;;5005834;28;20030;-81
2021/12/10 06:04:27;;;;;;;2.15;1.23;;;-1.40;99.90;;;;;;5004464;28;20034;-81
2021/12/10 06:06:53;;;;;;;1.65;1.23;;;-1.30;99.90;;;;;;4988481;28;20045;-81
2021/12/10 06:09:19;;;;;;;2.50;0.95;;;-1.40;99.90;;;;;;5004252;28;20467;-80
2021/12/10 06:11:45;;;;;;;1.65;1.40;;;-1.40;99.90;;;;;;5007892;28;20029;-79
2021/12/10 06:14:11;;;;;;;1.55;0.65;;;-1.40;99.90;;;;;;5001123;28;20038;-80
2021/12/10 06:16:39;;;;;;;2.08;0.95;;;-1.40;99.90;;;;;;5012812;28;20056;-81
2021/12/10 06:19:06;;;;;;;1.60;0.85;;;-1.40;99.90;;;;;;4988499;28;20341;-79
2021/12/10 06:21:33;;;;;;;2.83;1.17;;;-1.50;99.90;;;;;;5004113;28;20116;-78
2021/12/10 06:24:00;;;;;;;5.45;2.15;;;-1.50;99.90;;;;;;5001522;28;20132;-79
2021/12/10 06:26:26;;;;;;;5.50;1.92;;;-1.40;99.90;;;;;;4998562;28;20023;-80
2021/12/10 06:28:52;;;;;;;3.03;1.58;;;-1.40;99.90;;;;;;4998310;28;20085;-81
2021/12/10 06:31:22;;;;;;;3.30;1.40;;;-1.40;99.90;;;;;;5005994;28;20022;-81
2021/12/10 06:33:49;;;;;;;3.05;1.92;;;-1.50;99.90;;;;;;5011197;28;20025;-80
2021/12/10 06:36:17;;;;;;;5.30;2.25;;;-1.50;99.90;;;;;;5015111;28;20027;-80
2021/12/10 06:38:44;;;;;;;3.85;2.70;;;-1.50;99.90;;;;;;4999024;28;20010;-79
2021/12/10 06:41:11;;;;;;;3.90;2.17;;;-1.50;99.90;;;;;;5017169;28;20100;-81
2021/12/10 06:43:38;;;;;;;5.38;2.70;;;-1.50;99.90;;;;;;5017414;28;20030;-82
2021/12/10 06:46:06;;;;;;;4.10;2.45;;;-1.50;99.90;;;;;;5008043;28;20050;-81
2021/12/10 06:48:32;;;;;;;8.13;3.65;;;-1.50;99.90;;;;;;5022331;28;20095;-82
2021/12/10 06:51:04;;;;;;;8.05;3.55;;;-1.50;99.90;;;;;;5012454;28;20033;-81
2021/12/10 06:53:32;;;;;;;10.38;3.75;;;-1.50;99.90;;;;;;5003462;28;20145;-80
2021/12/10 06:55:59;;;;;;;6.63;3.40;;;-1.50;99.90;;;;;;5005012;28;20050;-81
2021/12/10 06:58:27;;;;;;;8.88;3.60;;;-1.50;99.90;;;;;;5020401;28;20018;-82
2021/12/10 07:00:57;;;;;;;6.75;3.35;;;-1.40;99.90;;;;;;5004391;28;20057;-81
2021/12/10 07:03:27;;;;;;;6.68;3.50;;;-1.50;99.90;;;;;;5021034;28;20041;-81
2021/12/10 07:05:54;;;;;;;6.43;4.15;;;-1.40;99.90;;;;;;5025088;28;20037;-82
2021/12/10 07:08:23;;;;;;;5.63;3.88;;;-1.40;99.90;;;;;;5025603;28;20089;-84
2021/12/10 07:10:49;;;;;;;6.65;3.90;;;-1.40;99.90;;;;;;5009170;28;20030;-81
2021/12/10 07:13:16;;;;;;;7.18;4.00;;;-1.40;99.90;;;;;;4994436;28;20026;-82
2021/12/10 07:15:46;;;;;;;7.20;4.22;;;-1.40;99.90;;;;;;5004753;28;20018;-84
2021/12/10 07:18:13;;;;;;;9.20;4.88;;;-1.40;99.90;;;;;;5003923;28;20371;-84
2021/12/10 07:20:40;;;;;;;9.55;5.35;;;-1.30;99.90;;;;;;5004372;28;20049;-84
2021/12/10 07:23:06;;;;;;;6.90;4.28;;;-1.30;99.90;;;;;;5013644;28;20035;-81
2021/12/10 07:25:35;;;;;;;7.72;4.50;;;-1.30;99.90;;;;;;5015165;28;20022;-80
2021/12/10 07:28:01;;;;;;;7.68;4.45;;;-1.20;99.90;;;;;;5013980;28;20046;-79
2021/12/10 07:30:28;;;;;;;8.23;5.40;;;-1.20;99.90;;;;;;5015122;28;20042;-79
2021/12/10 07:32:54;;;;;;;9.35;4.72;;;-1.20;99.90;;;;;;5015979;28;20022;-79
2021/12/10 07:35:20;;;;;;;8.13;4.40;;;-1.20;99.90;;;;;;5010636;28;20037;-82
2021/12/10 07:37:48;;;;;;;9.55;4.63;;;-1.20;99.90;;;;;;5008094;28;20464;-83
2021/12/10 07:40:18;;;;;;;8.38;5.32;;;-1.20;99.90;;;;;;5006892;28;20034;-81
2021/12/10 07:42:44;;;;;;;6.50;4.30;;;-1.10;99.90;;;;;;5006398;28;20022;-82
2021/12/10 07:45:10;;;;;;;7.45;4.32;;;-1.00;99.90;;;;;;5007190;28;20054;-83
2021/12/10 07:47:37;;;;;;;7.13;4.85;;;-1.00;99.90;;;;;;5005672;28;20023;-80
2021/12/10 07:50:07;;;;;;;8.10;3.92;;;-0.90;99.90;;;;;;5003113;28;20022;-84
2021/12/10 07:52:34;;;;;;;7.97;4.28;;;-0.90;99.90;;;;;;5003018;28;20464;-85
2021/12/10 07:55:03;;;;;;;7.53;4.15;;;-0.80;99.90;;;;;;5003394;28;20026;-81
2021/12/10 07:57:35;;;;;;;8.55;4.40;;;-0.80;99.90;;;;;;5005686;28;20093;-81
2021/12/10 08:00:04;;;;;;;5.45;4.00;;;-0.80;99.90;;;;;;5000777;28;20022;-80
2021/12/10 08:02:35;;;;;;;7.38;4.13;;;-0.80;99.90;;;;;;5000485;28;20041;-82
2021/12/10 08:05:02;;;;;;;6.35;3.58;;;-0.70;99.90;;;;;;4987221;28;20041;-81
2021/12/10 08:07:27;;;;;;;8.88;3.80;;;-0.60;99.90;;;;;;5002555;28;20027;-80
2021/12/10 08:09:53;;;;;;;6.85;3.78;;;-0.60;99.90;;;;;;4997117;28;20125;-83
2021/12/10 08:12:19;;;;;;;7.35;3.75;;;-0.50;99.90;;;;;;4995955;28;20041;-81
2021/12/10 08:14:46;;;;;;;8.10;4.72;;;-0.40;99.90;;;;;;5007140;28;20026;-82
2021/12/10 08:17:12;;;;;;;6.25;3.88;;;-0.30;99.90;;;;;;5007607;28;20022;-83
2021/12/10 08:19:38;;;;;;;4.93;3.30;;;-0.20;99.90;;;;;;5006386;28;20026;-82
2021/12/10 08:22:04;;;;;;;5.32;3.53;;;-0.10;99.90;;;;;;5004833;28;20022;-83
2021/12/10 08:24:30;;;;;;;6.30;3.22;;;0.00;99.90;;;;;;5005557;28;20094;-83
2021/12/10 08:26:56;;;;;;;6.93;4.60;;;0.20;99.90;;;;;;5004357;28;20053;-81
2021/12/10 08:29:25;;;;;;;7.25;3.78;;;0.30;99.70;;;;;;5004573;28;20116;-83
2021/12/10 08:31:51;;;;;;;4.65;3.10;;;0.40;99.00;;;;;;5007017;28;20450;-84
2021/12/10 08:34:16;;;;;;;9.38;3.45;;;0.30;98.00;;;;;;5007250;28;20026;-84
2021/12/10 08:36:42;;;;;;;8.55;4.20;;;0.30;97.80;;;;;;5009475;28;20049;-84
2021/12/10 08:39:11;;;;;;;4.50;3.28;;;0.30;97.90;;;;;;5009930;28;20026;-84
2021/12/10 08:41:37;;;;;;;4.80;3.15;;;0.30;98.10;;;;;;5009681;28;20032;-84
2021/12/10 08:44:05;;;;;;;5.65;3.50;;;0.40;98.20;;;;;;5015080;28;20015;-81
2021/12/10 08:46:31;;;;;;;6.00;3.65;;;0.50;98.00;;;;;;5016950;28;20078;-83
2021/12/10 08:48:59;;;;;;;9.50;3.80;;;0.60;97.60;;;;;;5003425;28;20092;-82
2021/12/10 08:51:50;;;;;;;5.55;3.60;;;0.60;97.40;;;;;;5003555;28;20038;-83
2021/12/10 08:54:18;;;;;;;6.72;4.05;;;0.60;96.80;;;;;;5004586;28;20034;-82
2021/12/10 08:56:45;;;;;;;5.85;4.00;;;0.50;96.90;;;;;;5008201;28;20033;-82
2021/12/10 08:59:12;;;;;;;5.60;3.25;;;0.50;97.30;;;;;;5005944;28;20030;-81
2021/12/10 09:01:43;;;;;;;5.80;3.38;;;0.50;96.80;;;;;;5005831;28;20056;-81
2021/12/10 09:04:11;;;;;;;4.50;3.00;;;0.50;96.90;;;;;;5008771;28;20074;-83
2021/12/10 09:06:40;;;;;;;5.82;3.75;;;0.70;97.10;;;;;;5011519;28;20034;-83
2021/12/10 09:09:10;;;;;;;5.82;4.15;;;0.80;96.60;;;;;;5016290;28;20082;-82
2021/12/10 09:11:38;;;;;;;4.38;2.58;;;0.90;96.40;;;;;;5020040;28;20076;-83
2021/12/10 09:14:06;;;;;;;4.43;2.83;;;1.10;96.40;;;;;;5007488;28;20029;-81
2021/12/10 09:16:32;;;;;;;4.50;2.60;;;1.30;96.20;;;;;;5005043;28;20130;-80
2021/12/10 09:19:02;;;;;;;4.57;2.70;;;1.60;96.00;;;;;;5009421;28;20029;-80
2021/12/10 09:21:31;;;;;;;4.63;3.33;;;1.90;95.30;;;;;;5026136;28;20022;-82
2021/12/10 09:24:03;;;;;;;5.22;3.10;;;2.00;93.90;;;;;;5026239;28;20034;-83
2021/12/10 09:26:30;;;;;;;;;;;1.90;92.90;;;;;;5002819;28;20042;-84
2021/12/10 09:28:57;;;;;;;4.40;2.75;;;1.70;93.00;;;;;;4988795;28;19922;-83
2021/12/10 09:31:24;;;;;;;4.78;2.92;;;1.70;93.40;;;;;;4989728;28;20014;-84
2021/12/10 09:33:57;;;;;;;6.88;3.65;;;1.80;93.40;;;;;;5009314;28;20042;-81
2021/12/10 09:36:24;;;;;;;8.45;3.88;;;1.80;93.00;;;;;;4989803;28;20140;-83
2021/12/10 09:38:50;;;;;;;4.35;3.15;;;2.00;93.10;;;;;;5004618;28;20030;-82
2021/12/10 09:41:16;;;;;;;7.57;3.92;;;2.10;92.70;;;;;;5004149;28;20045;-83
2021/12/10 09:43:43;;;;;;;6.00;2.78;;;2.00;92.20;;;;;;5005737;28;20081;-80
2021/12/10 09:46:10;;;;;;;4.47;2.60;;;2.10;92.20;;;;;;5005047;28;20032;-83
2021/12/10 09:48:40;;;;;;;3.38;2.30;;;2.10;92.10;;;;;;4987527;28;20023;-83
2021/12/10 09:51:18;;;;;;;4.93;2.50;;;2.30;92.00;;;;;;4986238;28;20022;-83
2021/12/10 09:53:48;;;;;;;3.92;2.42;;;2.50;91.30;;;;;;5019786;28;20033;-82
2021/12/10 09:56:16;;;;;;;3.53;2.30;;;2.40;90.80;;;;;;5026006;28;20017;-82
2021/12/10 09:58:42;;;;;;;3.70;2.35;;;2.40;90.50;;;;;;5025366;28;20156;-83
2021/12/10 10:01:27;;;;;;;4.25;2.38;;;2.50;90.30;;;;;;5007864;28;20072;-82
2021/12/10 10:04:00;;;;;;;3.60;2.13;;;2.40;90.00;;;;;;5026536;28;20049;-83
2021/12/10 10:06:30;;;;;;;4.95;2.75;;;2.30;90.00;;;;;;5008899;28;20454;-84
2021/12/10 10:08:56;;;;;;;4.22;2.40;;;2.20;90.20;;;;;;5026978;28;20022;-83
2021/12/10 10:11:27;;;;;;;5.35;2.30;;;2.00;90.40;;;;;;5006839;28;20033;-84
2021/12/10 10:13:54;;;;;;;3.67;2.25;;;2.00;90.60;;;;;;5019036;28;20026;-79
2021/12/10 10:16:23;;;;;;;3.63;2.00;;;2.10;90.70;;;;;;5010481;28;20033;-82
2021/12/10 10:18:50;;;;;;;4.63;2.50;;;2.20;90.60;;;;;;5000192;28;20022;-84
2021/12/10 10:21:28;;;;;;;5.45;2.92;;;2.30;90.50;;;;;;5024643;28;20029;-83
2021/12/10 10:23:54;;;;;;;6.55;2.78;;;2.50;90.20;;;;;;5008516;28;20022;-82
2021/12/10 10:26:40;;;;;;;6.28;2.38;;;2.60;89.80;;;;;;5008076;28;20390;-84
2021/12/10 10:29:10;;;;;;;3.20;2.40;;;2.80;89.00;;;;;;5008610;28;20030;-84
2021/12/10 10:31:41;;;;;;;6.00;2.70;;;2.80;87.20;;;;;;5031058;28;20045;-83
2021/12/10 10:34:09;;;;;;;4.17;2.50;;;2.60;85.80;;;;;;5022880;28;20158;-83
2021/12/10 10:36:35;;;;;;;3.40;2.13;;;2.60;86.80;;;;;;5016910;28;20053;-80
2021/12/10 10:39:17;;;;;;;4.05;2.70;;;2.70;87.60;;;;;;5026510;28;20074;-81
2021/12/10 10:41:48;;;;;;;3.22;2.42;;;2.70;87.40;;;;;;5016744;28;20037;-80
2021/12/10 10:44:15;;;;;;;4.63;2.03;;;2.80;87.40;;;;;;5007019;28;20029;-82
2021/12/10 10:46:41;;;;;;;2.42;1.95;;;2.80;87.30;;;;;;5024407;28;20033;-83
2021/12/10 10:49:07;;;;;;;4.07;2.25;;;3.00;87.80;;;;;;5008493;28;20030;-80
2021/12/10 10:51:37;;;;;;;3.42;2.40;;;3.10;87.80;;;;;;5014017;28;20388;-80
2021/12/10 10:54:10;;;;;;;5.53;2.40;;;3.10;86.80;;;;;;5015751;28;20093;-78
2021/12/10 10:56:44;;;;;;;4.03;2.08;;;2.90;86.50;;;;;;5002896;28;20041;-81
2021/12/10 10:59:24;;;;;;;3.20;2.20;;;2.80;86.20;;;;;;5014482;28;20085;-82
2021/12/10 11:01:59;;;;;;;2.72;1.92;;;2.70;86.60;;;;;;5027556;28;20014;-79
2021/12/10 11:04:30;;;;;;;3.85;2.28;;;2.60;87.30;;;;;;5036918;28;20034;-81
2021/12/10 11:07:05;;;;;;;4.38;2.30;;;2.60;87.90;;;;;;5022511;28;20022;-80
2021/12/10 11:09:33;;;;;;;3.30;2.58;;;2.70;88.20;;;;;;5025740;28;20041;-80
2021/12/10 11:12:04;;;;;;;3.28;1.83;;;2.80;88.00;;;;;;5014021;28;20037;-79
2021/12/10 11:14:37;;;;;;;2.90;1.92;;;2.90;87.90;;;;;;5017912;28;20026;-80
2021/12/10 11:17:05;;;;;;;3.33;1.80;;;3.10;87.40;;;;;;5001522;28;20026;-80
2021/12/10 11:19:31;;;;;;;4.00;2.03;;;3.10;86.20;;;;;;5028200;28;20030;-81
2021/12/10 11:22:08;;;;;;;4.80;2.15;;;3.20;85.20;;;;;;4998460;28;20502;-80
2021/12/10 11:24:43;;;;;;;3.95;2.15;;;3.30;85.30;;;;;;4999605;28;20097;-82
2021/12/10 11:27:22;;;;;;;3.38;1.92;;;3.40;85.10;;;;;;5029408;28;20374;-81
2021/12/10 11:30:03;;;;;;;7.38;1.65;;;3.40;84.20;;;;;;5026060;28;20053;-80
2021/12/10 11:32:43;;;;;;;3.22;1.80;;;3.40;83.90;;;;;;5018660;28;20034;-81
2021/12/10 11:35:41;;;;;;;2.42;1.98;;;3.50;83.00;;;;;;5030632;28;20125;-80
2021/12/10 11:38:16;;;;;;;2.63;1.80;;;3.40;82.70;;;;;;5022484;28;20061;-81
2021/12/10 11:41:01;;;;;;;3.35;1.63;;;3.50;82.60;;;;;;5013872;28;20049;-80
2021/12/10 11:47:27;;;;;;;3.90;2.22;;;3.70;81.20;;;;;;4998998;28;20069;-81
2021/12/10 11:49:53;;;;;;;2.80;1.85;;;3.80;80.40;;;;;;5002584;28;20018;-82
2021/12/10 11:52:25;;;;;;;6.95;1.98;;;3.90;80.80;;;;;;5022126;28;20026;-81
2021/12/10 11:54:53;;;;;;;;;;;4.10;80.40;;;;;;5020649;28;20041;-81
2021/12/10 11:57:29;;;;;;;4.35;2.22;;;4.20;80.00;;;;;;5024277;28;19909;-81
2021/12/10 12:00:08;;;;;;;6.30;2.30;;;4.10;79.20;;;;;;5026738;28;20030;-81
2021/12/10 12:02:47;;;;;;;11.50;2.30;;;3.90;79.50;;;;;;5030342;28;20045;-83
2021/12/10 12:05:19;;;;;;;4.28;2.15;;;3.80;80.30;;;;;;5010943;28;20101;-84
2021/12/10 12:07:47;;;;;;;4.23;2.03;;;3.90;80.90;;;;;;5021398;28;20077;-82
2021/12/10 12:10:38;;;;;;;6.00;2.40;;;3.90;80.90;;;;;;5009386;28;20292;-83
2021/12/10 12:13:22;;;;;;;4.05;1.92;;;3.80;79.40;;;;;;4984951;28;20025;-85
2021/12/10 12:15:54;;;;;;;4.40;2.10;;;3.80;80.10;;;;;;5000913;28;20090;-83
2021/12/10 12:18:26;;;;;;;3.78;1.70;;;3.80;79.90;;;;;;5022135;28;20022;-82
2021/12/10 12:21:01;;;;;;;3.22;2.08;;;3.80;80.10;;;;;;5004634;28;20128;-82
2021/12/10 12:26:17;;;;;;;2.70;2.13;;;3.90;80.40;;;;;;4983583;28;20089;-82
2021/12/10 12:28:52;;;;;;;3.13;1.70;;;4.00;80.50;;;;;;4982422;28;20027;-83
2021/12/10 12:31:23;;;;;;;3.08;1.88;;;4.00;80.20;;;;;;4982322;28;20026;-82
2021/12/10 12:34:06;;;;;;;2.03;1.38;;;4.00;80.20;;;;;;4983160;28;20037;-83
2021/12/10 12:36:43;;;;;;;2.35;1.65;;;4.10;80.40;;;;;;4994798;28;20015;-84
2021/12/10 12:39:14;;;;;;;2.35;1.70;;;4.10;79.70;;;;;;4977377;28;20022;-83
2021/12/10 12:41:46;;;;;;;2.50;1.50;;;4.20;79.50;;;;;;4993623;28;20487;-82
2021/12/10 12:44:22;;;;;;;;;;;4.30;79.40;;;;;;5006980;28;20336;-81
2021/12/10 12:47:03;;;;;;;2.75;1.50;;;4.30;79.30;;;;;;5005062;28;19890;-82
2021/12/10 12:49:37;;;;;;;4.75;2.17;;;4.30;79.20;;;;;;5027454;28;20048;-82
2021/12/10 12:52:10;;;;;;;3.72;2.03;;;4.20;79.30;;;;;;5020763;28;20391;-82
2021/12/10 12:54:42;;;;;;;2.08;1.55;;;4.20;79.60;;;;;;5020368;28;20045;-81
2021/12/10 12:57:10;;;;;;;8.13;2.05;;;4.20;80.00;;;;;;5003150;28;20463;-81
2021/12/10 12:59:36;;;;;;;2.65;1.85;;;4.20;79.50;;;;;;5014589;28;20026;-82
2021/12/10 13:02:06;;;;;;;2.95;2.10;;;4.20;79.90;;;;;;5004196;28;20111;-82
2021/12/10 13:04:38;;;;;;;4.13;1.75;;;4.20;80.00;;;;;;5021479;28;20041;-83
2021/12/10 13:07:19;;;;;;;4.07;1.85;;;4.00;80.20;;;;;;5016676;28;20128;-83
2021/12/10 13:09:55;;;;;;;2.35;1.60;;;3.90;80.60;;;;;;4999607;28;20037;-83
2021/12/10 13:12:39;;;;;;;2.97;1.75;;;3.90;81.10;;;;;;4995239;28;20114;-82
2021/12/10 13:15:22;;;;;;;3.05;1.90;;;3.90;81.20;;;;;;5005594;28;20022;-84
2021/12/10 13:17:54;;;;;;;5.85;1.80;;;3.90;81.40;;;;;;4993607;28;20026;-81
2021/12/10 13:20:23;;;;;;;3.88;1.80;;;3.90;81.30;;;;;;5001012;28;20518;-80
2021/12/10 13:22:52;;;;;;;3.50;1.98;;;3.90;81.50;;;;;;4991133;28;20026;-80